createdAt,value
2022-10-18T00:00:17.147Z,8.60
2022-10-18T00:02:47.521Z,9.00
2022-10-18T00:05:18.069Z,8.80
2022-10-18T00:07:48.541Z,12.40
2022-10-18T00:10:19.268Z,9.00
2022-10-18T00:12:50.388Z,13.40
2022-10-18T00:15:21.774Z,11.10
2022-10-18T00:17:52.141Z,9.50
2022-10-18T00:20:22.749Z,10.40
2022-10-18T00:22:53.127Z,9.50
2022-10-18T00:25:23.491Z,9.30
2022-10-18T00:27:53.845Z,9.50
2022-10-18T00:30:24.615Z,10.30
2022-10-18T00:32:54.978Z,11.30
2022-10-18T00:35:25.720Z,9.70
2022-10-18T00:37:56.065Z,10.60
2022-10-18T00:40:26.744Z,9.10
2022-10-18T00:42:57.362Z,8.80
2022-10-18T00:45:28.094Z,10.70
2022-10-18T00:48:02.396Z,14.20
2022-10-18T00:50:35.936Z,9.80
2022-10-18T00:53:11.252Z,10.00
2022-10-18T00:55:41.929Z,13.40
2022-10-18T00:58:15.087Z,8.80
2022-10-18T01:00:45.474Z,12.00
2022-10-18T01:03:15.865Z,9.60
2022-10-18T01:05:48.772Z,11.50
2022-10-18T01:08:33.484Z,8.20
2022-10-18T01:11:22.498Z,13.40
2022-10-18T01:14:02.957Z,13.30
2022-10-18T01:16:38.757Z,12.00
2022-10-18T01:19:31.717Z,9.00
2022-10-18T01:22:10.328Z,10.30
2022-10-18T01:24:57.448Z,10.30
2022-10-18T01:27:37.966Z,10.10
2022-10-18T01:30:34.117Z,11.70
2022-10-18T01:33:10.158Z,10.70
2022-10-18T01:35:45.653Z,10.40
2022-10-18T01:38:20.415Z,9.80
2022-10-18T01:40:53.219Z,10.30
2022-10-18T01:43:27.491Z,10.90
2022-10-18T01:45:59.896Z,8.40
2022-10-18T01:48:30.702Z,10.50
2022-10-18T01:51:01.061Z,12.50
2022-10-18T01:53:34.843Z,10.80
2022-10-18T01:56:19.087Z,10.10
2022-10-18T01:59:01.697Z,11.90
2022-10-18T02:01:40.750Z,9.80
2022-10-18T02:04:20.590Z,11.10
2022-10-18T02:06:56.809Z,14.50
2022-10-18T02:09:35.031Z,10.10
2022-10-18T02:12:08.751Z,16.20
2022-10-18T02:14:39.460Z,12.60
2022-10-18T02:17:12.567Z,9.70
2022-10-18T02:19:47.193Z,13.20
2022-10-18T02:22:18.163Z,12.90
2022-10-18T02:24:52.143Z,10.90
2022-10-18T02:27:23.529Z,13.30
2022-10-18T02:29:54.728Z,8.10
2022-10-18T02:32:33.150Z,12.70
2022-10-18T02:35:12.196Z,10.50
2022-10-18T02:37:44.222Z,11.90
2022-10-18T02:40:14.869Z,11.30
2022-10-18T02:42:48.608Z,14.00
2022-10-18T02:45:19.443Z,13.30
2022-10-18T02:47:50.508Z,10.30
2022-10-18T02:50:21.591Z,13.70
2022-10-18T02:52:52.304Z,13.70
2022-10-18T02:55:22.994Z,12.90
2022-10-18T02:57:54.210Z,12.10
2022-10-18T03:00:25.153Z,12.10
2022-10-18T03:02:55.520Z,11.60
2022-10-18T03:05:26.172Z,12.10
2022-10-18T03:07:59.074Z,12.60
2022-10-18T03:10:29.680Z,10.60
2022-10-18T03:13:00.096Z,11.20
2022-10-18T03:15:30.426Z,9.70
2022-10-18T03:18:01.092Z,9.40
2022-10-18T03:20:31.544Z,9.90
2022-10-18T03:23:01.900Z,12.50
2022-10-18T03:25:32.265Z,9.80
2022-10-18T03:28:02.847Z,11.00
2022-10-18T03:30:33.253Z,8.70
2022-10-18T03:33:03.590Z,11.50
2022-10-18T03:35:34.408Z,12.60
2022-10-18T03:38:04.787Z,12.30
2022-10-18T03:40:35.238Z,11.10
2022-10-18T03:43:05.986Z,12.60
2022-10-18T03:45:36.322Z,12.60
2022-10-18T03:48:07.979Z,11.40
2022-10-18T03:50:38.488Z,12.20
2022-10-18T03:53:09.682Z,12.20
2022-10-18T03:55:40.952Z,11.20
2022-10-18T03:58:11.496Z,13.10
2022-10-18T04:00:41.838Z,15.80
2022-10-18T04:03:12.233Z,12.50
2022-10-18T04:05:42.565Z,11.30
2022-10-18T04:08:13.000Z,13.70
2022-10-18T04:10:44.044Z,11.10
2022-10-18T04:13:14.919Z,11.90
2022-10-18T04:15:45.516Z,8.80
2022-10-18T04:18:15.974Z,12.30
2022-10-18T04:20:46.576Z,9.80
2022-10-18T04:23:17.551Z,14.70
2022-10-18T04:25:48.576Z,15.30
2022-10-18T04:28:19.714Z,10.40
2022-10-18T04:30:53.457Z,12.60
2022-10-18T04:33:24.166Z,16.70
2022-10-18T04:35:55.658Z,9.80
2022-10-18T04:38:26.657Z,13.60
2022-10-18T04:40:57.305Z,9.00
2022-10-18T04:43:28.717Z,11.50
2022-10-18T04:45:59.370Z,12.30
2022-10-18T04:48:30.095Z,13.30
2022-10-18T04:51:01.097Z,10.30
2022-10-18T04:53:31.460Z,10.60
2022-10-18T04:56:02.406Z,10.90
2022-10-18T04:58:33.579Z,12.30
2022-10-18T05:01:07.759Z,11.20
2022-10-18T05:03:38.177Z,9.90
2022-10-18T05:06:08.853Z,12.80
2022-10-18T05:08:39.966Z,13.10
2022-10-18T05:13:48.614Z,9.40
2022-10-18T05:16:21.319Z,11.00
2022-10-18T05:18:52.320Z,10.80
2022-10-18T05:21:23.049Z,12.40
2022-10-18T05:23:56.157Z,14.60
2022-10-18T05:26:26.569Z,11.00
2022-10-18T05:28:57.319Z,11.10
2022-10-18T05:31:27.981Z,11.60
2022-10-18T05:33:58.983Z,9.00
2022-10-18T05:36:29.341Z,9.80
2022-10-18T05:39:04.014Z,8.10
2022-10-18T05:41:36.065Z,7.30
2022-10-18T05:44:07.621Z,11.70
2022-10-18T05:46:37.966Z,9.30
2022-10-18T05:49:08.678Z,11.40
2022-10-18T05:51:39.901Z,10.40
2022-10-18T05:54:11.338Z,8.40
2022-10-18T05:56:42.175Z,10.00
2022-10-18T05:59:13.218Z,10.80
2022-10-18T06:01:45.522Z,8.60
2022-10-18T06:04:17.821Z,9.40
2022-10-18T06:06:48.205Z,10.70
2022-10-18T06:09:18.533Z,9.40
2022-10-18T06:11:48.849Z,11.00
2022-10-18T06:14:19.498Z,12.10
2022-10-18T06:16:50.562Z,9.50
2022-10-18T06:19:21.842Z,10.30
2022-10-18T06:21:52.268Z,8.00
2022-10-18T06:24:23.230Z,8.90
2022-10-18T06:26:53.606Z,9.70
2022-10-18T06:29:24.115Z,12.10
2022-10-18T06:31:54.478Z,11.10
2022-10-18T06:34:24.937Z,11.10
2022-10-18T06:36:56.535Z,11.20
2022-10-18T06:39:29.197Z,13.00
2022-10-18T06:41:59.540Z,10.70
2022-10-18T06:44:30.862Z,14.20
2022-10-18T06:47:01.281Z,13.30
2022-10-18T06:49:31.890Z,12.80
2022-10-18T06:52:02.788Z,12.70
2022-10-18T06:54:33.453Z,12.90
2022-10-18T06:57:03.804Z,13.30
2022-10-18T06:59:34.421Z,12.00
2022-10-18T07:02:04.876Z,13.50
2022-10-18T07:04:35.750Z,12.10
2022-10-18T07:07:06.128Z,13.00
2022-10-18T07:09:36.809Z,14.10
2022-10-18T07:12:07.952Z,14.60
2022-10-18T07:14:38.288Z,11.20
2022-10-18T07:17:08.915Z,10.50
2022-10-18T07:19:39.276Z,11.10
2022-10-18T07:22:09.754Z,10.10
2022-10-18T07:24:40.145Z,12.00
2022-10-18T07:27:10.564Z,14.70
2022-10-18T07:29:41.193Z,9.00
2022-10-18T07:32:11.610Z,10.80
2022-10-18T07:34:42.001Z,13.50
2022-10-18T07:37:12.349Z,13.30
2022-10-18T07:39:42.719Z,12.40
2022-10-18T07:42:13.050Z,13.70
2022-10-18T07:44:43.774Z,19.50
2022-10-18T07:47:15.114Z,22.30
2022-10-18T07:49:45.547Z,13.90
2022-10-18T07:52:15.923Z,12.30
2022-10-18T07:54:46.355Z,15.70
2022-10-18T07:57:17.061Z,16.50
2022-10-18T07:59:48.336Z,13.50
2022-10-18T08:02:18.778Z,16.60
2022-10-18T08:04:49.426Z,16.50
2022-10-18T08:07:19.866Z,15.10
2022-10-18T08:09:50.645Z,15.60
2022-10-18T08:12:21.095Z,16.70
2022-10-18T08:14:51.454Z,17.10
2022-10-18T08:17:21.794Z,18.10
2022-10-18T08:20:04.823Z,14.60
2022-10-18T08:22:42.687Z,15.10
2022-10-18T08:25:13.124Z,17.40
2022-10-18T08:27:43.428Z,17.60
2022-10-18T08:30:14.444Z,15.00
2022-10-18T08:32:45.038Z,16.60
2022-10-18T08:35:15.653Z,15.00
2022-10-18T08:37:46.255Z,19.20
2022-10-18T08:40:17.377Z,18.00
2022-10-18T08:42:58.515Z,17.40
2022-10-18T08:45:41.519Z,18.00
2022-10-18T08:48:22.843Z,14.80
2022-10-18T08:50:55.368Z,19.60
2022-10-18T08:53:36.147Z,18.50
2022-10-18T08:56:14.844Z,15.90
2022-10-18T08:58:45.871Z,21.40
2022-10-18T09:01:27.631Z,20.30
2022-10-18T09:04:21.245Z,21.30
2022-10-18T09:07:00.591Z,23.40
2022-10-18T09:09:40.601Z,25.30
2022-10-18T09:12:34.005Z,21.00
2022-10-18T09:15:14.237Z,19.70
2022-10-18T09:17:57.604Z,19.10
2022-10-18T09:20:32.315Z,16.80
2022-10-18T09:23:16.047Z,22.80
2022-10-18T09:25:48.717Z,22.80
2022-10-18T09:28:32.692Z,21.20
2022-10-18T09:31:10.886Z,25.10
2022-10-18T09:33:54.979Z,22.90
2022-10-18T09:36:28.206Z,18.20
2022-10-18T09:39:03.970Z,25.10
2022-10-18T09:41:41.062Z,16.40
2022-10-18T09:44:19.777Z,19.80
2022-10-18T09:46:53.323Z,16.90
2022-10-18T09:49:28.837Z,23.00
2022-10-18T09:52:01.277Z,24.70
2022-10-18T09:54:36.941Z,22.80
2022-10-18T09:57:11.056Z,18.70
2022-10-18T09:59:44.129Z,20.10
2022-10-18T10:02:18.110Z,18.80
2022-10-18T10:04:48.781Z,22.00
2022-10-18T10:07:22.466Z,18.40
2022-10-18T10:09:59.648Z,23.10
2022-10-18T10:12:32.725Z,21.40
2022-10-18T10:15:22.402Z,15.80
2022-10-18T10:18:01.576Z,15.10
2022-10-18T10:20:38.142Z,17.80
2022-10-18T10:23:15.524Z,17.10
2022-10-18T10:25:51.596Z,20.50
2022-10-18T10:28:24.263Z,16.40
2022-10-18T10:30:54.812Z,18.20
2022-10-18T10:33:37.273Z,18.00
2022-10-18T10:36:17.462Z,19.00
2022-10-18T10:39:02.974Z,15.20
2022-10-18T10:41:34.451Z,15.60
2022-10-18T10:44:15.496Z,15.20
2022-10-18T10:46:46.746Z,16.50
2022-10-18T10:52:28.564Z,15.20
2022-10-18T10:55:34.154Z,27.30
2022-10-18T10:57:53.837Z,20.20
2022-10-18T11:00:42.459Z,19.40
2022-10-18T11:03:28.414Z,19.90
2022-10-18T11:06:01.108Z,16.20
2022-10-18T11:08:39.361Z,16.90
2022-10-18T11:11:22.184Z,15.50
2022-10-18T11:14:20.585Z,19.20
2022-10-18T11:16:56.497Z,20.60
2022-10-18T11:22:06.317Z,14.70
2022-10-18T11:24:37.816Z,19.40
2022-10-18T11:27:16.558Z,20.30
2022-10-18T11:30:00.841Z,12.80
2022-10-18T11:32:43.329Z,15.60
2022-10-18T11:35:30.512Z,14.70
2022-10-18T11:38:13.863Z,15.30
2022-10-18T11:41:06.254Z,16.70
2022-10-18T11:44:01.852Z,16.10
2022-10-18T11:46:47.093Z,14.40
2022-10-18T11:49:34.075Z,14.80
2022-10-18T11:52:13.562Z,12.60
2022-10-18T11:55:04.350Z,13.40
2022-10-18T11:57:44.989Z,15.80
2022-10-18T12:03:25.575Z,11.10
2022-10-18T12:05:59.189Z,9.70
2022-10-18T12:08:35.517Z,14.70
2022-10-18T12:11:15.550Z,12.00
2022-10-18T12:13:50.041Z,16.70
2022-10-18T12:16:45.666Z,12.00
2022-10-18T12:19:26.257Z,13.90
2022-10-18T12:22:03.992Z,10.30
2022-10-18T12:24:35.705Z,9.90
2022-10-18T12:27:07.156Z,11.00
2022-10-18T12:29:47.970Z,9.70
2022-10-18T12:32:25.753Z,8.70
2022-10-18T12:35:00.896Z,8.90
2022-10-18T12:37:59.085Z,10.90
2022-10-18T12:40:37.542Z,14.60
2022-10-18T12:43:18.933Z,10.00
2022-10-18T12:45:56.533Z,7.00
2022-10-18T12:48:32.974Z,13.50
2022-10-18T12:51:15.071Z,11.10
2022-10-18T12:53:47.566Z,9.30
2022-10-18T12:56:42.163Z,12.30
2022-10-18T12:59:50.063Z,9.60
2022-10-18T13:02:32.260Z,9.00
2022-10-18T13:05:40.936Z,7.20
2022-10-18T13:08:38.349Z,6.20
2022-10-18T13:11:36.901Z,5.80
2022-10-18T13:14:29.591Z,6.30
2022-10-18T13:17:07.853Z,5.90
2022-10-18T13:19:58.110Z,5.30
2022-10-18T13:23:02.757Z,5.10
2022-10-18T13:25:47.316Z,9.20
2022-10-18T13:28:29.937Z,3.80
2022-10-18T13:31:13.432Z,4.20
2022-10-18T13:33:44.314Z,4.80
2022-10-18T13:36:26.176Z,7.10
2022-10-18T13:39:05.912Z,3.20
2022-10-18T13:42:09.784Z,6.10
2022-10-18T13:44:40.305Z,2.30
2022-10-18T13:47:16.077Z,2.20
2022-10-18T13:50:11.000Z,2.70
2022-10-18T13:52:56.588Z,3.80
2022-10-18T13:55:43.828Z,3.10
2022-10-18T13:58:23.398Z,3.80
2022-10-18T14:01:11.491Z,1.40
2022-10-18T14:04:00.041Z,1.90
2022-10-18T14:06:36.337Z,1.70
2022-10-18T14:09:25.707Z,3.20
2022-10-18T14:12:10.119Z,7.20
2022-10-18T14:14:48.680Z,1.40
2022-10-18T14:17:28.348Z,4.80
2022-10-18T14:20:05.131Z,2.50
2022-10-18T14:22:39.998Z,3.10
2022-10-18T14:25:24.049Z,1.50
2022-10-18T14:28:13.689Z,3.00
2022-10-18T14:30:58.949Z,5.80
2022-10-18T14:33:33.731Z,5.60
2022-10-18T14:36:11.649Z,6.00
2022-10-18T14:38:55.501Z,2.60
2022-10-18T14:41:27.828Z,4.50
2022-10-18T14:44:19.291Z,4.60
2022-10-18T14:46:52.272Z,6.40
2022-10-18T14:49:23.133Z,4.60
2022-10-18T14:51:56.976Z,3.90
2022-10-18T14:54:32.388Z,2.40
2022-10-18T14:57:04.639Z,5.40
2022-10-18T14:59:42.877Z,2.80
2022-10-18T15:02:17.301Z,6.30
2022-10-18T15:04:48.538Z,5.20
2022-10-18T15:07:20.753Z,4.20
2022-10-18T15:09:51.973Z,5.00
2022-10-18T15:12:23.009Z,1.70
2022-10-18T15:14:54.437Z,3.00
2022-10-18T15:17:27.805Z,2.90
2022-10-18T15:20:05.966Z,4.80
2022-10-18T15:22:37.355Z,5.30
2022-10-18T15:25:16.084Z,2.90
2022-10-18T15:27:49.166Z,3.90
2022-10-18T15:30:23.821Z,3.20
2022-10-18T15:32:56.721Z,1.40
2022-10-18T15:35:30.221Z,2.10
2022-10-18T15:38:03.530Z,2.20
2022-10-18T15:40:42.819Z,2.60
2022-10-18T15:43:47.541Z,4.60
2022-10-18T15:46:33.131Z,3.00
2022-10-18T15:49:56.561Z,1.60
2022-10-18T15:52:39.216Z,2.50
2022-10-18T15:55:44.677Z,1.00
2022-10-18T15:58:20.736Z,4.30
2022-10-18T16:00:52.989Z,2.80
2022-10-18T16:03:24.207Z,2.20
2022-10-18T16:05:57.565Z,3.40
2022-10-18T16:08:30.480Z,1.90
2022-10-18T16:11:01.608Z,2.80
2022-10-18T16:13:32.008Z,4.60
2022-10-18T16:16:02.490Z,2.30
2022-10-18T16:18:34.669Z,1.70
2022-10-18T16:21:05.218Z,1.90
2022-10-18T16:23:35.746Z,2.30
2022-10-18T16:26:06.672Z,3.40
2022-10-18T16:28:37.099Z,7.60
2022-10-18T16:31:08.816Z,3.50
2022-10-18T16:33:39.181Z,1.60
2022-10-18T16:36:12.210Z,2.10
2022-10-18T16:38:42.594Z,13.60
2022-10-18T16:41:15.912Z,3.90
2022-10-18T16:43:47.942Z,3.80
2022-10-18T16:46:20.750Z,2.10
2022-10-18T16:48:52.403Z,2.50
2022-10-18T16:51:23.308Z,2.70
2022-10-18T16:53:54.237Z,3.50
2022-10-18T16:56:27.057Z,4.70
2022-10-18T16:58:57.500Z,2.60
2022-10-18T17:01:28.434Z,3.20
2022-10-18T17:03:59.001Z,7.10
2022-10-18T17:06:31.233Z,4.60
2022-10-18T17:09:01.869Z,3.30
2022-10-18T17:11:32.583Z,7.60
2022-10-18T17:14:02.952Z,4.80
2022-10-18T17:16:35.093Z,3.20
2022-10-18T17:19:08.274Z,3.70
2022-10-18T17:21:39.115Z,4.70
2022-10-18T17:24:09.523Z,5.00
2022-10-18T17:26:40.162Z,3.90
2022-10-18T17:29:10.623Z,2.20
2022-10-18T17:31:41.033Z,3.40
2022-10-18T17:34:11.645Z,2.40
2022-10-18T17:36:42.092Z,6.50
2022-10-18T17:39:12.572Z,3.30
2022-10-18T17:41:42.909Z,3.80
2022-10-18T17:44:13.438Z,2.90
2022-10-18T17:46:44.578Z,1.90
2022-10-18T17:49:15.520Z,3.90
2022-10-18T17:51:46.467Z,2.00
2022-10-18T17:54:17.008Z,7.50
2022-10-18T17:56:49.905Z,1.60
2022-10-18T17:59:23.032Z,3.70
2022-10-18T18:01:54.040Z,2.70
2022-10-18T18:04:25.778Z,4.90
2022-10-18T18:06:57.271Z,4.90
2022-10-18T18:09:28.371Z,2.70
2022-10-18T18:11:58.881Z,2.70
2022-10-18T18:14:29.453Z,3.30
2022-10-18T18:17:01.283Z,1.70
2022-10-18T18:19:31.917Z,1.90
2022-10-18T18:22:03.629Z,2.50
2022-10-18T18:24:34.316Z,2.20
2022-10-18T18:27:04.722Z,3.80
2022-10-18T18:29:35.066Z,2.70
2022-10-18T18:32:05.885Z,2.20
2022-10-18T18:34:36.589Z,3.20
2022-10-18T18:37:07.269Z,3.50
2022-10-18T18:39:39.347Z,3.60
2022-10-18T18:42:10.728Z,5.10
2022-10-18T18:44:45.811Z,2.90
2022-10-18T18:47:16.158Z,4.20
2022-10-18T18:49:46.611Z,6.90
2022-10-18T18:52:17.269Z,2.70
2022-10-18T18:54:47.601Z,14.30
2022-10-18T18:57:19.084Z,19.00
2022-10-18T18:59:49.733Z,16.60
2022-10-18T19:02:20.538Z,6.80
2022-10-18T19:04:51.458Z,4.10
2022-10-18T19:07:22.073Z,3.10
2022-10-18T19:09:53.061Z,3.30
2022-10-18T19:12:23.681Z,3.10
2022-10-18T19:14:54.599Z,3.70
2022-10-18T19:17:26.688Z,4.00
2022-10-18T19:19:58.927Z,5.70
2022-10-18T19:22:29.598Z,4.50
2022-10-18T19:25:00.233Z,4.40
2022-10-18T19:27:30.676Z,4.30
2022-10-18T19:30:01.295Z,4.40
2022-10-18T19:32:31.605Z,3.60
2022-10-18T19:35:02.035Z,3.60
2022-10-18T19:37:33.035Z,9.80
2022-10-18T19:40:03.917Z,5.60
2022-10-18T19:42:34.643Z,3.60
2022-10-18T19:45:06.107Z,5.20
2022-10-18T19:47:38.489Z,3.90
2022-10-18T19:50:10.572Z,2.50
2022-10-18T19:52:41.565Z,3.70
2022-10-18T19:55:11.981Z,3.70
2022-10-18T19:57:42.621Z,5.30
2022-10-18T20:00:19.298Z,2.20
2022-10-18T20:02:50.106Z,3.90
2022-10-18T20:05:20.663Z,2.50
2022-10-18T20:07:51.350Z,3.90
2022-10-18T20:10:21.786Z,2.70
2022-10-18T20:12:52.794Z,4.90
2022-10-18T20:15:23.126Z,4.50
2022-10-18T20:17:53.546Z,3.00
2022-10-18T20:20:24.614Z,6.40
2022-10-18T20:22:55.108Z,3.70
2022-10-18T20:25:25.507Z,2.70
2022-10-18T20:27:55.865Z,3.20
2022-10-18T20:30:26.709Z,3.00
2022-10-18T20:32:57.201Z,4.20
2022-10-18T20:35:28.580Z,3.70
2022-10-18T20:37:59.507Z,6.10
2022-10-18T20:40:30.148Z,3.90
2022-10-18T20:43:03.723Z,7.00
2022-10-18T20:45:35.014Z,3.90
2022-10-18T20:48:05.888Z,7.00
2022-10-18T20:50:38.724Z,3.80
2022-10-18T20:53:09.071Z,6.40
2022-10-18T20:55:39.493Z,2.40
2022-10-18T20:58:10.288Z,3.50
2022-10-18T21:00:41.240Z,3.50
2022-10-18T21:05:43.416Z,4.20
2022-10-18T21:08:14.038Z,3.10
2022-10-18T21:10:44.364Z,2.70
2022-10-18T21:13:15.382Z,1.90
2022-10-18T21:15:54.161Z,5.40
2022-10-18T21:18:27.868Z,3.80
2022-10-18T21:21:07.434Z,3.30
2022-10-18T21:23:38.211Z,2.50
2022-10-18T21:26:09.498Z,5.10
2022-10-18T21:28:39.985Z,2.10
2022-10-18T21:31:15.876Z,3.80
2022-10-18T21:33:47.870Z,3.80
2022-10-18T21:36:18.314Z,5.70
2022-10-18T21:38:48.888Z,9.80
2022-10-18T21:41:22.229Z,4.30
2022-10-18T21:43:55.200Z,2.30
2022-10-18T21:46:27.034Z,2.90
2022-10-18T21:48:58.961Z,3.20
2022-10-18T21:51:30.378Z,5.30
2022-10-18T21:54:01.458Z,4.00
2022-10-18T21:56:34.192Z,5.40
2022-10-18T21:59:05.228Z,3.90
2022-10-18T22:01:37.675Z,4.40
2022-10-18T22:04:18.005Z,3.20
2022-10-18T22:06:48.571Z,4.10
2022-10-18T22:09:19.742Z,2.60
2022-10-18T22:11:53.716Z,2.70
2022-10-18T22:14:24.571Z,4.00
2022-10-18T22:16:55.693Z,3.80
2022-10-18T22:19:26.072Z,3.30
2022-10-18T22:21:56.580Z,2.00
2022-10-18T22:24:27.375Z,2.20
2022-10-18T22:26:57.880Z,5.90
2022-10-18T22:29:28.310Z,2.10
2022-10-18T22:31:58.658Z,2.70
2022-10-18T22:34:29.092Z,4.40
2022-10-18T22:36:59.488Z,3.10
2022-10-18T22:39:29.980Z,2.80
2022-10-18T22:42:00.696Z,8.20
2022-10-18T22:44:31.103Z,5.40
2022-10-18T22:47:01.941Z,1.80
2022-10-18T22:49:32.276Z,2.90
2022-10-18T22:52:03.303Z,1.70
2022-10-18T22:54:33.705Z,3.10
2022-10-18T22:57:04.255Z,2.70
2022-10-18T22:59:34.826Z,2.30
2022-10-18T23:02:05.242Z,3.30
2022-10-18T23:04:36.065Z,3.40
2022-10-18T23:07:06.758Z,6.10
2022-10-18T23:09:37.355Z,4.20
2022-10-18T23:12:07.848Z,2.60
2022-10-18T23:14:38.296Z,3.50
2022-10-18T23:17:08.931Z,2.60
2022-10-18T23:19:39.877Z,2.30
2022-10-18T23:22:10.496Z,2.90
2022-10-18T23:24:40.940Z,2.30
2022-10-18T23:27:11.417Z,1.70
2022-10-18T23:29:41.841Z,2.10
2022-10-18T23:32:12.835Z,1.60
2022-10-18T23:34:43.173Z,4.60
2022-10-18T23:37:13.508Z,2.60
2022-10-18T23:39:44.204Z,4.30
2022-10-18T23:42:14.566Z,16.40
2022-10-18T23:44:44.999Z,2.80
2022-10-18T23:47:15.622Z,2.30
2022-10-18T23:49:46.027Z,2.10
2022-10-18T23:52:16.460Z,1.80
2022-10-18T23:54:46.918Z,3.80
2022-10-18T23:57:17.474Z,2.10
2022-10-18T23:59:47.839Z,2.80
